Time;durP1;ratioP1;P1;durP2;ratioP2;P2;SDS_P1;SDS_P2;PMS_P1;PMS_P2;Temp;Humidity;BMP_temperature;BMP_pressure;BME280_temperature;BME280_humidity;BME280_pressure;Samples;Min_cycle;Max_cycle;Signal;HPM_P1;HPM_P2
2024/01/22 00:00:22;;;;;;;7.95;4.40;;;;;;;7.14;59.17;101406.03;4954073;28;96822;-75
2024/01/22 00:02:48;;;;;;;10.25;5.18;;;;;;;7.02;59.43;101397.41;4947504;28;97024;-76
2024/01/22 00:05:15;;;;;;;10.73;4.82;;;;;;;6.95;59.50;101404.47;4952640;28;97883;-75
2024/01/22 00:07:42;;;;;;;12.52;5.18;;;;;;;6.91;60.17;101396.63;4953941;28;99261;-76
2024/01/22 00:10:09;;;;;;;9.00;4.80;;;;;;;6.91;60.02;101394.88;4953519;28;96760;-75
2024/01/22 00:12:36;;;;;;;9.27;4.75;;;;;;;6.89;60.23;101401.03;4956137;28;97078;-75
2024/01/22 00:15:03;;;;;;;10.60;4.93;;;;;;;7.03;59.58;101392.09;4952099;28;97789;-74
2024/01/22 00:17:30;;;;;;;10.82;5.10;;;;;;;6.96;59.81;101397.44;4956380;28;100686;-74
2024/01/22 00:19:56;;;;;;;9.43;4.45;;;;;;;6.80;60.65;101394.97;4953025;28;96887;-74
2024/01/22 00:22:22;;;;;;;11.32;4.90;;;;;;;6.72;60.99;101390.69;4958019;28;97231;-75
2024/01/22 00:24:50;;;;;;;8.35;4.68;;;;;;;6.59;62.04;101382.03;4952309;28;101114;-75
2024/01/22 00:27:16;;;;;;;9.50;4.60;;;;;;;6.76;61.42;101382.75;4955800;28;100413;-76
2024/01/22 00:29:43;;;;;;;7.45;4.82;;;;;;;6.92;60.60;101358.97;4950959;28;96993;-75
2024/01/22 00:32:09;;;;;;;9.05;4.82;;;;;;;6.74;61.23;101353.03;4947664;28;99335;-74
2024/01/22 00:34:36;;;;;;;8.27;4.30;;;;;;;6.90;61.21;101343.19;4951166;28;99548;-74
2024/01/22 00:37:02;;;;;;;8.90;4.28;;;;;;;6.96;60.57;101340.50;4953552;28;98974;-72
2024/01/22 00:39:28;;;;;;;8.13;4.38;;;;;;;6.80;61.11;101328.44;4950613;28;96708;-72
2024/01/22 00:41:57;;;;;;;10.43;5.20;;;;;;;6.95;60.78;101330.91;4950200;28;97495;-72
2024/01/22 00:44:24;;;;;;;8.48;4.85;;;;;;;6.86;61.14;101327.50;4953068;28;100740;-74
2024/01/22 00:46:50;;;;;;;8.35;4.32;;;;;;;6.98;60.97;101322.09;4953860;28;98123;-76
2024/01/22 00:49:17;;;;;;;8.27;4.75;;;;;;;6.75;61.84;101330.25;4950696;28;96837;-74
2024/01/22 00:51:43;;;;;;;9.93;4.70;;;;;;;6.89;61.30;101327.47;4953251;28;97101;-75
2024/01/22 00:54:09;;;;;;;9.55;4.60;;;;;;;6.78;61.91;101323.19;4951912;28;99598;-74
2024/01/22 00:56:36;;;;;;;7.78;4.40;;;;;;;6.95;61.24;101314.28;4957216;28;98639;-74
2024/01/22 00:59:03;;;;;;;10.85;4.80;;;;;;;7.02;61.02;101305.44;4951502;28;99087;-74
2024/01/22 01:01:31;;;;;;;8.48;5.05;;;;;;;7.01;61.18;101295.81;4950686;28;97136;-74
2024/01/22 01:03:57;;;;;;;11.55;5.07;;;;;;;6.98;61.51;101294.06;4952427;28;97821;-74
2024/01/22 01:06:24;;;;;;;6.47;4.40;;;;;;;6.96;61.32;101280.06;4953085;28;100993;-74
2024/01/22 01:08:50;;;;;;;12.15;5.13;;;;;;;6.97;61.75;101278.31;4949053;28;97209;-75
2024/01/22 01:11:16;;;;;;;12.18;4.32;;;;;;;6.98;61.71;101282.69;4949129;28;97324;-74
2024/01/22 01:13:43;;;;;;;8.68;4.82;;;;;;;6.95;62.08;101272.25;4948490;28;99097;-75
2024/01/22 01:16:11;;;;;;;6.88;4.30;;;;;;;6.99;61.98;101274.78;4949661;28;98086;-75
2024/01/22 01:18:37;;;;;;;9.00;4.40;;;;;;;7.12;61.45;101276.38;4946769;28;97330;-74
2024/01/22 01:21:03;;;;;;;13.77;4.95;;;;;;;7.09;61.53;101283.41;4952530;28;97147;-74
2024/01/22 01:23:30;;;;;;;9.70;4.57;;;;;;;7.28;60.91;101263.91;4949620;28;99425;-74
2024/01/22 01:25:56;;;;;;;9.20;4.03;;;;;;;7.22;60.90;101265.75;4953326;28;101021;-75
2024/01/22 01:28:24;;;;;;;11.85;4.15;;;;;;;7.24;60.64;101259.56;4951442;28;96853;-75
2024/01/22 01:30:50;;;;;;;8.27;3.95;;;;;;;7.29;60.59;101263.00;4950705;28;97747;-75
2024/01/22 01:33:18;;;;;;;10.57;4.00;;;;;;;7.14;60.60;101256.22;4948478;28;101651;-76
2024/01/22 01:35:45;;;;;;;7.35;4.10;;;;;;;7.11;61.29;101252.75;4951171;28;103245;-73
2024/01/22 01:38:12;;;;;;;9.80;4.28;;;;;;;6.90;62.08;101251.25;4953925;28;98781;-73
2024/01/22 01:40:40;;;;;;;5.95;3.72;;;;;;;6.94;61.83;101238.97;4951417;28;97216;-74
2024/01/22 01:43:06;;;;;;;7.45;3.60;;;;;;;7.02;61.62;101232.69;4949665;28;97527;-73
2024/01/22 01:45:33;;;;;;;10.27;3.95;;;;;;;7.02;61.89;101231.84;4952347;28;98927;-75
2024/01/22 01:48:00;;;;;;;5.63;3.45;;;;;;;7.05;61.64;101234.44;4953915;28;96877;-74
2024/01/22 01:50:28;;;;;;;7.50;3.80;;;;;;;7.09;61.44;101239.63;4948371;28;96855;-74
2024/01/22 01:52:55;;;;;;;10.15;4.63;;;;;;;7.13;61.42;101208.91;4942174;28;99523;-74
2024/01/22 01:55:22;;;;;;;6.65;3.70;;;;;;;7.25;60.98;101197.34;4944109;28;99457;-74
2024/01/22 01:57:50;;;;;;;9.63;3.42;;;;;;;7.27;60.93;101211.34;4953352;28;97018;-74
2024/01/22 02:00:18;;;;;;;8.20;3.42;;;;;;;7.26;60.90;101192.09;4947202;28;97562;-73
2024/01/22 02:02:44;;;;;;;7.72;3.63;;;;;;;7.39;60.90;101192.75;4950203;28;99427;-73
2024/01/22 02:05:13;;;;;;;7.38;3.83;;;;;;;7.34;60.66;101176.19;4951994;28;99358;-74
2024/01/22 02:07:40;;;;;;;8.63;3.72;;;;;;;7.33;60.84;101166.56;4958285;28;99316;-74
2024/01/22 02:10:12;;;;;;;9.45;4.38;;;;;;;7.07;61.79;101165.22;4951868;28;97025;-73
2024/01/22 02:12:38;;;;;;;7.72;3.55;;;;;;;7.32;61.40;101155.19;4953568;28;97811;-74
2024/01/22 02:15:05;;;;;;;10.38;3.38;;;;;;;7.38;61.17;101156.84;4949244;28;99401;-75
2024/01/22 02:17:31;;;;;;;9.18;3.72;;;;;;;7.32;61.45;101159.56;4953223;28;97236;-76
2024/01/22 02:19:58;;;;;;;12.00;4.13;;;;;;;7.33;61.59;101143.78;4952891;28;96840;-75
2024/01/22 02:22:24;;;;;;;7.65;4.05;;;;;;;7.50;61.15;101147.00;4953261;28;100802;-74
2024/01/22 02:24:52;;;;;;;7.43;3.78;;;;;;;7.52;60.96;101129.44;4952726;28;100973;-75
2024/01/22 02:27:18;;;;;;;5.82;3.20;;;;;;;7.54;61.29;101126.78;4954494;28;96900;-75
2024/01/22 02:29:45;;;;;;;8.55;3.80;;;;;;;7.49;61.66;101124.22;4950491;28;96965;-74
2024/01/22 02:32:11;;;;;;;10.25;4.20;;;;;;;7.80;60.56;101119.31;4948952;28;100427;-75
2024/01/22 02:34:38;;;;;;;6.00;3.53;;;;;;;7.71;61.03;101113.34;4951437;28;98900;-73
2024/01/22 02:37:04;;;;;;;6.18;3.95;;;;;;;7.89;60.74;101102.47;4952391;28;98143;-73
2024/01/22 02:39:30;;;;;;;5.60;3.35;;;;;;;7.91;60.71;101104.19;4946534;28;97760;-73
2024/01/22 02:41:58;;;;;;;9.32;3.75;;;;;;;7.82;61.38;101101.72;4945960;28;98822;-74
2024/01/22 02:44:25;;;;;;;6.90;3.45;;;;;;;8.00;60.91;101108.41;4946883;28;102189;-73
2024/01/22 02:46:51;;;;;;;10.90;3.50;;;;;;;8.00;61.20;101104.03;4949653;28;96829;-74
2024/01/22 02:49:18;;;;;;;6.25;3.08;;;;;;;7.97;61.67;101106.69;4950841;28;96748;-73
2024/01/22 02:51:45;;;;;;;8.48;3.22;;;;;;;7.91;62.24;101106.81;4947642;28;99256;-75
2024/01/22 02:54:13;;;;;;;5.72;3.10;;;;;;;7.70;63.29;101085.28;4951058;28;100611;-71
2024/01/22 02:56:39;;;;;;;8.07;3.80;;;;;;;7.86;63.18;101073.59;4948419;28;97147;-70
2024/01/22 02:59:07;;;;;;;7.22;3.67;;;;;;;8.04;62.37;101075.88;4950290;28;97704;-70
2024/01/22 03:01:34;;;;;;;5.38;3.03;;;;;;;7.83;63.19;101087.66;4948396;28;99559;-75
2024/01/22 03:04:00;;;;;;;5.70;2.85;;;;;;;7.92;63.25;101081.38;4956418;28;101245;-74
2024/01/22 03:06:27;;;;;;;6.88;2.92;;;;;;;7.81;64.21;101078.91;4950635;28;97036;-70
2024/01/22 03:08:53;;;;;;;5.90;3.58;;;;;;;7.87;64.21;101067.44;4956730;28;97354;-74
2024/01/22 03:11:19;;;;;;;10.10;3.47;;;;;;;8.05;63.90;101064.44;4949334;28;101920;-70
2024/01/22 03:13:46;;;;;;;5.82;3.20;;;;;;;8.16;63.19;101051.91;4956106;28;99200;-70
2024/01/22 03:16:14;;;;;;;5.57;2.83;;;;;;;8.37;63.11;101045.38;4950387;28;97381;-70
2024/01/22 03:18:40;;;;;;;8.20;3.22;;;;;;;8.29;63.15;101056.03;4949168;28;97500;-69
2024/01/22 03:21:06;;;;;;;7.75;3.22;;;;;;;8.26;63.40;101036.81;4949745;28;99929;-69
2024/01/22 03:23:33;;;;;;;6.35;3.20;;;;;;;8.22;64.07;101046.53;4950502;28;98600;-69
2024/01/22 03:25:59;;;;;;;6.85;3.22;;;;;;;8.21;64.55;101036.88;4952307;28;96876;-70
2024/01/22 03:28:25;;;;;;;6.60;3.33;;;;;;;8.31;64.19;101040.25;4952650;28;97273;-70
2024/01/22 03:30:52;;;;;;;7.22;3.60;;;;;;;8.15;64.98;101039.66;4951277;28;101851;-70
2024/01/22 03:33:20;;;;;;;8.40;3.20;;;;;;;8.04;65.73;101028.50;4954351;28;99009;-70
2024/01/22 03:35:46;;;;;;;8.68;3.40;;;;;;;8.07;65.95;101032.84;4949927;28;96910;-70
2024/01/22 03:38:12;;;;;;;8.57;3.03;;;;;;;8.07;65.98;101022.31;4951531;28;97285;-70
2024/01/22 03:40:39;;;;;;;8.10;3.40;;;;;;;8.10;66.28;101030.13;4951945;28;100535;-69
2024/01/22 03:43:05;;;;;;;4.82;3.17;;;;;;;8.14;65.88;101018.66;4952895;28;98822;-70
2024/01/22 03:45:31;;;;;;;9.57;3.15;;;;;;;8.17;66.11;101019.44;4953164;28;96804;-70
2024/01/22 03:47:58;;;;;;;6.50;3.35;;;;;;;8.32;65.63;101003.34;4956349;28;96969;-69
2024/01/22 03:50:25;;;;;;;6.90;4.00;;;;;;;8.48;65.36;100989.81;4949711;28;99315;-69
2024/01/22 03:52:52;;;;;;;5.28;3.20;;;;;;;8.36;65.47;100986.56;4955628;28;99243;-69
2024/01/22 03:55:19;;;;;;;5.25;3.00;;;;;;;8.35;66.02;101005.03;4949901;28;96782;-70
2024/01/22 03:57:45;;;;;;;6.63;3.42;;;;;;;8.46;65.68;100981.13;4950260;28;97522;-72
2024/01/22 04:00:13;;;;;;;8.15;3.20;;;;;;;8.54;65.51;100984.41;4948650;28;98854;-69
2024/01/22 04:02:39;;;;;;;8.57;3.10;;;;;;;8.54;65.35;100958.06;4949741;28;97638;-69
2024/01/22 04:05:07;;;;;;;7.28;3.45;;;;;;;8.62;65.86;100942.97;4954123;28;97297;-70
2024/01/22 04:07:35;;;;;;;10.27;3.25;;;;;;;8.74;65.84;100940.88;4953356;28;97388;-69
2024/01/22 04:10:01;;;;;;;8.07;3.20;;;;;;;8.66;66.53;100932.28;4946092;28;99134;-70
2024/01/22 04:12:28;;;;;;;8.63;3.17;;;;;;;8.60;66.91;100915.81;4949530;28;98799;-70
2024/01/22 04:14:54;;;;;;;5.47;2.92;;;;;;;8.63;66.77;100915.72;4950240;28;97758;-70
2024/01/22 04:17:20;;;;;;;5.65;3.30;;;;;;;8.70;66.60;100926.06;4950277;28;97012;-70
2024/01/22 04:19:47;;;;;;;5.55;2.88;;;;;;;8.79;65.97;100925.81;4948500;28;99002;-70
2024/01/22 04:22:13;;;;;;;9.85;2.95;;;;;;;8.75;66.14;100899.59;4950328;28;101625;-70
2024/01/22 04:24:41;;;;;;;6.43;2.85;;;;;;;8.81;65.80;100920.50;4948738;28;96809;-70
2024/01/22 04:27:08;;;;;;;8.18;2.92;;;;;;;8.86;65.63;100925.69;4948500;28;98400;-70
2024/01/22 04:29:35;;;;;;;8.43;3.00;;;;;;;8.82;65.95;100909.06;4949188;28;99027;-70
2024/01/22 04:32:01;;;;;;;10.90;3.28;;;;;;;8.72;66.40;100903.19;4949448;28;98402;-70
2024/01/22 04:34:27;;;;;;;8.20;3.20;;;;;;;8.91;65.69;100895.69;4952298;28;98883;-70
2024/01/22 04:36:54;;;;;;;6.78;3.10;;;;;;;9.00;65.44;100924.41;4946744;28;96891;-70
2024/01/22 04:39:20;;;;;;;8.20;3.08;;;;;;;8.74;66.14;100954.06;4947985;28;99058;-70
2024/01/22 04:41:48;;;;;;;5.72;2.70;;;;;;;8.62;67.40;100942.97;4948755;28;99964;-70
2024/01/22 04:44:14;;;;;;;6.45;2.97;;;;;;;8.77;66.93;100927.66;4949692;28;97751;-71
2024/01/22 04:46:40;;;;;;;6.07;2.90;;;;;;;8.77;66.84;100930.28;4950958;28;97203;-70
2024/01/22 04:49:08;;;;;;;8.15;2.92;;;;;;;8.91;66.31;100922.03;4948566;28;103294;-69
2024/01/22 04:51:35;;;;;;;6.38;2.78;;;;;;;8.90;66.67;100903.63;4946562;28;99598;-70
2024/01/22 04:54:01;;;;;;;4.43;2.38;;;;;;;8.85;66.43;100903.75;4949070;28;97300;-70
2024/01/22 04:56:27;;;;;;;5.35;2.70;;;;;;;9.00;65.96;100892.78;4951089;28;96981;-70
2024/01/22 04:58:55;;;;;;;6.38;2.25;;;;;;;9.01;66.35;100868.16;4949568;28;99262;-70
2024/01/22 05:01:21;;;;;;;6.68;2.60;;;;;;;9.16;65.58;100799.19;4946798;28;99142;-70
2024/01/22 05:03:48;;;;;;;7.60;2.10;;;;;;;8.88;66.93;100750.81;4946913;28;98333;-70
2024/01/22 05:06:14;;;;;;;5.03;2.30;;;;;;;9.00;66.76;100739.91;4948155;28;96982;-70
2024/01/22 05:08:41;;;;;;;8.43;2.67;;;;;;;9.09;66.34;100813.47;4949202;28;101804;-71
2024/01/22 05:11:07;;;;;;;6.30;2.53;;;;;;;9.08;66.18;100813.50;4945157;28;98791;-70
2024/01/22 05:13:34;;;;;;;3.85;2.15;;;;;;;9.05;66.26;100803.94;4949230;28;97330;-69
2024/01/22 05:16:02;;;;;;;8.15;2.45;;;;;;;8.94;66.72;100805.97;4948280;28;97406;-69
2024/01/22 05:18:28;;;;;;;6.97;2.25;;;;;;;9.03;66.69;100799.59;4949143;28;99049;-69
2024/01/22 05:20:54;;;;;;;3.60;2.15;;;;;;;9.09;66.06;100808.19;4944969;28;99169;-70
2024/01/22 05:23:20;;;;;;;4.30;2.10;;;;;;;9.03;66.39;100789.91;4953696;28;97280;-70
2024/01/22 05:25:47;;;;;;;6.97;2.20;;;;;;;9.19;66.17;100782.41;4949415;28;97929;-70
2024/01/22 05:28:13;;;;;;;5.78;2.50;;;;;;;9.29;65.52;100775.09;4949729;28;99542;-70
2024/01/22 05:30:39;;;;;;;6.82;2.42;;;;;;;9.23;65.67;100751.56;4945724;28;99234;-71
2024/01/22 05:33:07;;;;;;;5.25;2.65;;;;;;;9.09;66.10;100731.75;4946251;28;97276;-70
2024/01/22 05:35:34;;;;;;;8.13;2.17;;;;;;;9.11;66.24;100732.56;4951723;28;97745;-70
2024/01/22 05:38:00;;;;;;;5.43;2.33;;;;;;;8.84;67.60;100722.81;4946408;28;98984;-70
2024/01/22 05:40:26;;;;;;;6.68;2.35;;;;;;;8.94;67.37;100745.34;4951120;28;97519;-70
2024/01/22 05:42:53;;;;;;;4.53;2.00;;;;;;;8.67;68.51;100736.47;4948175;28;97544;-70
2024/01/22 05:45:19;;;;;;;5.57;1.92;;;;;;;8.88;68.60;100731.50;4953897;28;97154;-70
2024/01/22 05:47:45;;;;;;;7.82;1.80;;;;;;;9.03;67.70;100729.28;4950501;28;98914;-70
2024/01/22 05:50:13;;;;;;;5.22;2.00;;;;;;;8.98;68.03;100696.94;4944544;28;98903;-71
2024/01/22 05:52:39;;;;;;;3.25;1.77;;;;;;;9.12;67.46;100697.38;4948210;28;96787;-70
2024/01/22 05:55:06;;;;;;;2.75;1.50;;;;;;;9.03;67.76;100705.56;4951667;28;98058;-70
2024/01/22 05:57:32;;;;;;;3.55;1.75;;;;;;;9.25;66.90;100705.78;4951390;28;101495;-70
2024/01/22 05:59:58;;;;;;;;;;;;;;;9.33;67.05;100692.34;4949081;28;98784;-70
2024/01/22 06:02:32;;;;;;;5.93;2.08;;;;;;;9.33;67.20;100671.25;4956046;28;96949;-71
2024/01/22 06:04:58;;;;;;;4.72;1.58;;;;;;;9.41;66.72;100678.03;4948887;28;97909;-70
2024/01/22 06:07:26;;;;;;;3.05;1.33;;;;;;;9.15;68.22;100673.56;4947773;28;99232;-69
2024/01/22 06:09:52;;;;;;;5.05;1.60;;;;;;;9.32;67.63;100661.63;4946410;28;99233;-69
2024/01/22 06:12:19;;;;;;;2.92;1.20;;;;;;;9.29;67.34;100656.44;4947392;28;97430;-69
2024/01/22 06:14:45;;;;;;;5.05;1.52;;;;;;;9.25;67.72;100668.88;4951555;28;99685;-70
2024/01/22 06:17:11;;;;;;;6.22;1.40;;;;;;;9.27;67.87;100653.84;4949073;28;97674;-69
2024/01/22 06:19:38;;;;;;;2.92;1.33;;;;;;;9.35;67.64;100658.88;4951103;28;98942;-69
2024/01/22 06:22:04;;;;;;;5.82;1.88;;;;;;;9.19;68.63;100651.44;4948801;28;98475;-69
2024/01/22 06:24:34;;;;;;;3.38;1.65;;;;;;;9.36;68.12;100652.72;4946244;28;97592;-70
2024/01/22 06:27:01;;;;;;;3.42;1.48;;;;;;;9.36;67.91;100665.91;4954583;28;100792;-70
2024/01/22 06:29:27;;;;;;;3.08;1.33;;;;;;;9.34;67.96;100663.28;4950500;28;99174;-70
2024/01/22 06:31:53;;;;;;;4.28;1.50;;;;;;;9.39;67.32;100671.91;4950970;28;96755;-70
2024/01/22 06:34:20;;;;;;;3.53;1.20;;;;;;;9.17;68.62;100690.19;4953336;28;97326;-70
2024/01/22 06:36:46;;;;;;;4.57;1.60;;;;;;;9.25;68.85;100675.94;4947975;28;99200;-70
2024/01/22 06:39:13;;;;;;;2.47;1.10;;;;;;;9.28;68.80;100671.41;4946224;28;101666;-70
2024/01/22 06:41:42;;;;;;;3.47;1.60;;;;;;;9.41;68.55;100672.75;4948473;28;98652;-70
2024/01/22 06:44:08;;;;;;;2.20;0.98;;;;;;;9.33;68.17;100656.28;4947773;28;97203;-71
2024/01/22 06:46:35;;;;;;;3.30;1.15;;;;;;;9.49;67.82;100664.59;4952566;28;98914;-70
2024/01/22 06:49:01;;;;;;;4.15;1.33;;;;;;;9.76;66.38;100654.91;4950336;28;98904;-70
2024/01/22 06:51:29;;;;;;;2.85;1.27;;;;;;;9.71;66.30;100667.41;4949100;28;97501;-70
2024/01/22 06:53:55;;;;;;;5.53;1.30;;;;;;;9.54;67.52;100662.66;4948295;28;97532;-70
2024/01/22 06:56:22;;;;;;;5.43;1.35;;;;;;;9.91;65.74;100657.03;4954752;28;99743;-70
2024/01/22 06:58:50;;;;;;;4.28;1.15;;;;;;;9.77;66.32;100649.59;4950564;28;99660;-70
2024/01/22 07:01:16;;;;;;;1.40;1.00;;;;;;;9.59;67.25;100642.25;4950580;28;97176;-69
2024/01/22 07:03:42;;;;;;;3.15;1.30;;;;;;;9.66;66.74;100635.00;4948273;28;97146;-69
2024/01/22 07:06:09;;;;;;;3.15;1.40;;;;;;;9.46;67.65;100630.38;4952327;28;97883;-69
2024/01/22 07:08:35;;;;;;;4.70;1.65;;;;;;;9.67;67.21;100634.97;4946714;28;99495;-69
2024/01/22 07:11:01;;;;;;;2.58;1.15;;;;;;;9.73;66.91;100631.25;4945544;28;98479;-70
2024/01/22 07:13:29;;;;;;;2.60;1.35;;;;;;;9.74;66.70;100620.66;4946099;28;97181;-70
2024/01/22 07:15:56;;;;;;;2.83;1.13;;;;;;;9.54;67.50;100610.75;4946898;28;97693;-69
2024/01/22 07:18:23;;;;;;;3.17;1.25;;;;;;;9.71;66.94;100612.84;4948622;28;98768;-70
2024/01/22 07:20:50;;;;;;;5.70;1.50;;;;;;;9.85;66.30;100607.94;4948323;28;100951;-70
2024/01/22 07:23:16;;;;;;;2.80;1.40;;;;;;;9.78;66.91;100597.69;4946756;28;99435;-70
2024/01/22 07:25:43;;;;;;;3.75;1.13;;;;;;;9.98;65.91;100605.72;4946244;28;98917;-70
2024/01/22 07:28:10;;;;;;;2.63;1.05;;;;;;;9.73;66.39;100596.94;4944628;28;101653;-69
2024/01/22 07:30:37;;;;;;;3.40;1.00;;;;;;;9.74;66.38;100610.09;4945926;28;97443;-70
2024/01/22 07:33:05;;;;;;;1.27;0.82;;;;;;;9.87;65.96;100587.66;4949537;28;97501;-69
2024/01/22 07:35:31;;;;;;;5.25;1.05;;;;;;;9.94;65.79;100599.72;4947750;28;99269;-70
2024/01/22 07:38:01;;;;;;;1.70;1.08;;;;;;;10.02;65.11;100598.59;4952324;28;99283;-70
2024/01/22 07:40:28;;;;;;;1.98;1.00;;;;;;;10.11;64.93;100596.47;4953434;28;96778;-70
2024/01/22 07:42:54;;;;;;;3.03;1.10;;;;;;;10.07;65.27;100586.94;4952867;28;96831;-70
2024/01/22 07:45:21;;;;;;;3.30;1.10;;;;;;;10.11;64.36;100575.34;4952783;28;98837;-69
2024/01/22 07:47:47;;;;;;;3.15;1.00;;;;;;;10.09;65.01;100577.19;4961264;28;99042;-70
2024/01/22 07:50:15;;;;;;;2.78;1.30;;;;;;;10.00;65.20;100574.88;4956021;28;97325;-69
2024/01/22 07:52:41;;;;;;;1.77;1.05;;;;;;;9.95;65.57;100575.03;4956551;28;97295;-70
2024/01/22 07:55:11;;;;;;;3.15;0.93;;;;;;;9.66;66.51;100564.63;4950822;28;98414;-70
2024/01/22 07:57:37;;;;;;;3.95;1.20;;;;;;;9.81;66.28;100556.19;4958469;28;99208;-70
2024/01/22 08:00:11;;;;;;;2.15;1.10;;;;;;;9.89;65.74;100591.09;4950220;28;97134;-70
2024/01/22 08:02:37;;;;;;;2.47;0.90;;;;;;;9.88;65.98;100575.31;4952462;28;96780;-70
2024/01/22 08:05:05;;;;;;;3.10;1.10;;;;;;;9.81;66.50;100571.16;4948798;28;98293;-71
2024/01/22 08:07:33;;;;;;;3.95;1.38;;;;;;;10.09;66.89;100577.19;4950943;28;99650;-70
2024/01/22 08:09:59;;;;;;;4.15;1.30;;;;;;;9.86;69.74;100585.91;4942393;28;100268;-70
2024/01/22 08:12:25;;;;;;;3.53;1.15;;;;;;;9.93;70.89;100579.50;4950078;28;98712;-71
2024/01/22 08:14:52;;;;;;;5.82;1.20;;;;;;;10.03;70.99;100581.84;4950672;28;98959;-70
2024/01/22 08:17:18;;;;;;;3.03;1.00;;;;;;;10.00;72.42;100588.06;4950169;28;99637;-71
2024/01/22 08:19:44;;;;;;;3.05;1.20;;;;;;;9.90;73.36;100582.28;4949968;28;97851;-70
2024/01/22 08:22:11;;;;;;;1.77;1.05;;;;;;;9.59;75.45;100584.22;4950686;28;97794;-71
2024/01/22 08:24:38;;;;;;;6.07;1.20;;;;;;;9.73;75.95;100574.06;4945917;28;96952;-70
2024/01/22 08:27:05;;;;;;;8.38;2.15;;;;;;;9.46;77.20;100580.28;4947608;28;99335;-71
2024/01/22 08:29:32;;;;;;;4.32;1.15;;;;;;;9.51;78.70;100573.97;4947183;28;98137;-71
2024/01/22 08:31:58;;;;;;;8.20;1.40;;;;;;;9.48;80.05;100567.91;4945237;28;99589;-71
2024/01/22 08:34:25;;;;;;;3.63;1.05;;;;;;;9.49;80.20;100572.28;4945812;28;99273;-71
2024/01/22 08:36:51;;;;;;;2.20;1.27;;;;;;;9.54;81.38;100572.97;4949426;28;99646;-76
2024/01/22 08:39:17;;;;;;;3.63;1.50;;;;;;;9.63;81.46;100563.91;4944586;28;97797;-76
2024/01/22 08:41:45;;;;;;;1.80;1.10;;;;;;;9.28;84.02;100581.75;4946398;28;97186;-75
2024/01/22 08:44:11;;;;;;;4.43;1.27;;;;;;;9.35;84.84;100574.50;4945014;28;97697;-75
2024/01/22 08:46:38;;;;;;;2.78;1.00;;;;;;;9.45;84.33;100568.03;4947444;28;98768;-76
2024/01/22 08:49:04;;;;;;;2.55;1.17;;;;;;;9.23;86.03;100564.38;4946735;28;97440;-76
2024/01/22 08:51:31;;;;;;;3.10;1.10;;;;;;;9.02;88.04;100563.28;4944230;28;97234;-77
2024/01/22 08:53:58;;;;;;;4.30;1.40;;;;;;;8.95;89.77;100557.34;4945978;28;97608;-76
2024/01/22 08:56:24;;;;;;;3.85;1.20;;;;;;;8.89;90.77;100552.28;4946302;28;101693;-76
2024/01/22 08:58:52;;;;;;;2.13;1.10;;;;;;;9.04;90.24;100541.25;4947451;28;97191;-76
2024/01/22 09:01:18;;;;;;;6.82;1.25;;;;;;;8.94;90.05;100552.97;4945884;28;96872;-76
2024/01/22 09:03:45;;;;;;;4.47;1.15;;;;;;;8.99;91.44;100537.88;4945684;28;98983;-76
2024/01/22 09:06:11;;;;;;;5.05;1.33;;;;;;;9.05;91.17;100561.44;4945756;28;97781;-76
2024/01/22 09:08:38;;;;;;;3.42;1.52;;;;;;;9.10;91.31;100564.78;4943372;28;100963;-77
2024/01/22 09:11:04;;;;;;;4.93;1.48;;;;;;;9.33;90.73;100552.59;4945944;28;96982;-74
2024/01/22 09:13:31;;;;;;;5.93;1.30;;;;;;;9.21;91.50;100548.59;4946982;28;100123;-75
2024/01/22 09:15:59;;;;;;;3.83;1.27;;;;;;;9.24;91.14;100550.28;4949247;28;98844;-75
2024/01/22 09:18:25;;;;;;;2.90;1.15;;;;;;;8.77;93.14;100544.75;4944158;28;97662;-75
2024/01/22 09:20:52;;;;;;;2.03;1.15;;;;;;;8.94;92.91;100539.81;4945510;28;97714;-75
2024/01/22 09:23:18;;;;;;;1.73;1.02;;;;;;;9.14;91.89;100540.03;4944539;28;99031;-75
2024/01/22 09:25:45;;;;;;;5.53;1.20;;;;;;;9.30;90.45;100534.25;4943365;28;98457;-75
2024/01/22 09:28:13;;;;;;;2.17;1.05;;;;;;;9.29;90.70;100530.75;4940681;28;96822;-75
2024/01/22 09:30:42;;;;;;;1.48;1.10;;;;;;;9.29;90.79;100529.88;4937094;28;100944;-77
2024/01/22 09:33:10;;;;;;;2.67;1.30;;;;;;;9.25;91.69;100528.28;4940032;28;98167;-75
2024/01/22 09:35:37;;;;;;;3.15;1.08;;;;;;;9.00;92.50;100526.44;4939834;28;99037;-75
2024/01/22 09:38:04;;;;;;;5.50;1.40;;;;;;;9.17;92.22;100525.88;4945040;28;97154;-76
2024/01/22 09:40:33;;;;;;;2.53;1.00;;;;;;;9.33;91.11;100520.94;4943304;28;97175;-75
2024/01/22 09:43:03;;;;;;;3.85;1.23;;;;;;;9.31;91.33;100517.53;4940945;28;99435;-74
2024/01/22 09:45:31;;;;;;;9.23;1.33;;;;;;;9.44;90.16;100518.81;4948181;28;99013;-75
2024/01/22 09:47:58;;;;;;;3.10;1.23;;;;;;;9.69;88.73;100508.28;4939735;28;96888;-76
2024/01/22 09:50:27;;;;;;;2.38;1.45;;;;;;;9.71;88.62;100498.53;4943531;28;97408;-75
2024/01/22 09:52:54;;;;;;;7.72;1.33;;;;;;;9.85;87.45;100502.38;4946374;28;99170;-75
2024/01/22 09:55:22;;;;;;;2.88;1.05;;;;;;;9.80;86.35;100493.78;4945959;28;99137;-76
2024/01/22 09:57:53;;;;;;;3.78;1.30;;;;;;;9.93;85.73;100495.03;4943177;28;97677;-75
2024/01/22 10:00:25;;;;;;;4.07;1.45;;;;;;;9.80;86.59;100483.22;4947097;28;96788;-75
2024/01/22 10:02:52;;;;;;;2.65;0.82;;;;;;;10.14;85.14;100505.72;4939962;28;101770;-75
2024/01/22 10:05:19;;;;;;;2.40;1.10;;;;;;;9.88;86.44;100482.94;4945543;28;98950;-76
2024/01/22 10:07:48;;;;;;;5.93;1.00;;;;;;;9.88;85.77;100470.59;4947673;28;97661;-75
2024/01/22 10:10:15;;;;;;;5.50;1.27;;;;;;;10.05;85.69;100482.31;4947472;28;97300;-76
2024/01/22 10:12:57;;;;;;;1.52;1.10;;;;;;;10.04;84.56;100478.84;4943682;28;97935;-75
2024/01/22 10:15:23;;;;;;;1.73;0.88;;;;;;;10.26;84.15;100470.97;4943345;28;99171;-76
2024/01/22 10:17:50;;;;;;;2.97;0.95;;;;;;;10.57;82.20;100484.69;4946908;28;96863;-76
2024/01/22 10:20:17;;;;;;;3.20;1.00;;;;;;;10.41;81.68;100464.25;4945277;28;96915;-75
2024/01/22 10:22:43;;;;;;;1.40;0.82;;;;;;;10.39;82.34;100461.66;4947102;28;100860;-76
2024/01/22 10:25:11;;;;;;;2.40;1.25;;;;;;;10.68;80.95;100466.66;4946268;28;98378;-75
2024/01/22 10:27:37;;;;;;;4.97;0.90;;;;;;;10.45;81.21;100460.53;4947725;28;96764;-76
2024/01/22 10:30:13;;;;;;;5.43;1.05;;;;;;;10.56;81.25;100456.59;4948945;28;97320;-75
2024/01/22 10:32:40;;;;;;;;;;;;;;;10.59;80.50;100451.16;4948579;28;98993;-75
2024/01/22 10:35:21;;;;;;;2.37;0.97;;;;;;;10.78;79.35;100440.69;4946826;28;98502;-75
2024/01/22 10:38:05;;;;;;;2.70;0.98;;;;;;;10.95;78.77;100440.88;4949881;28;96792;-75
2024/01/22 10:40:32;;;;;;;3.40;1.00;;;;;;;10.92;78.58;100430.41;4945177;28;96920;-75
2024/01/22 10:42:59;;;;;;;2.47;0.75;;;;;;;10.94;78.11;100423.28;4944030;28;101707;-76
2024/01/22 10:45:31;;;;;;;1.95;0.90;;;;;;;10.75;78.35;100420.56;4945633;28;98587;-75
2024/01/22 10:47:58;;;;;;;3.58;0.77;;;;;;;10.73;78.87;100406.53;4944743;28;98505;-76
2024/01/22 10:50:28;;;;;;;3.25;0.80;;;;;;;10.98;78.22;100421.34;4945854;28;97493;-76
2024/01/22 10:52:57;;;;;;;1.83;0.80;;;;;;;10.68;78.90;100413.81;4947735;28;98279;-76
2024/01/22 10:55:23;;;;;;;2.13;0.90;;;;;;;11.03;77.48;100425.53;4947940;28;101224;-75
2024/01/22 10:57:54;;;;;;;1.20;0.70;;;;;;;10.78;78.25;100424.84;4945158;28;97214;-76
2024/01/22 11:00:20;;;;;;;1.58;0.63;;;;;;;10.73;78.83;100427.69;4947313;28;97375;-75
2024/01/22 11:02:54;;;;;;;1.60;0.80;;;;;;;11.06;77.48;100398.09;4944166;28;99267;-75
2024/01/22 11:05:22;;;;;;;1.58;0.65;;;;;;;10.95;77.12;100406.50;4943609;28;98415;-75
2024/01/22 11:07:52;;;;;;;2.83;0.70;;;;;;;10.73;78.98;100398.59;4948622;28;96858;-75
2024/01/22 11:10:20;;;;;;;1.60;0.90;;;;;;;10.77;78.82;100380.81;4946970;28;97294;-75
2024/01/22 11:12:49;;;;;;;1.92;1.00;;;;;;;11.08;77.45;100378.63;4949460;28;97633;-75
2024/01/22 11:15:17;;;;;;;3.17;0.98;;;;;;;11.09;78.33;100374.19;4946240;28;97837;-74
2024/01/22 11:17:44;;;;;;;1.30;0.68;;;;;;;11.19;78.22;100364.91;4952656;28;97666;-74
2024/01/22 11:20:14;;;;;;;1.73;0.73;;;;;;;11.06;77.77;100366.38;4946732;28;96991;-75
2024/01/22 11:22:41;;;;;;;1.58;0.60;;;;;;;11.20;77.52;100350.78;4949490;28;99257;-75
2024/01/22 11:25:09;;;;;;;3.88;0.90;;;;;;;11.36;76.52;100351.78;4947541;28;101069;-75
2024/01/22 11:27:39;;;;;;;1.10;0.60;;;;;;;11.05;77.69;100351.44;4948206;28;98409;-76
2024/01/22 11:30:34;;;;;;;3.28;0.80;;;;;;;10.93;78.23;100349.31;4946700;28;97397;-75